sensor_id;sensor_type;location;lat;lon;timestamp;P1;durP1;ratioP1;P2;durP2;ratioP2
29026;SDS011;16120;48.608;9.092;2023-03-01T00:03:55;88.87;;;13.23;;
29026;SDS011;16120;48.608;9.092;2023-03-01T00:07:52;90.07;;;14.40;;
29026;SDS011;16120;48.608;9.092;2023-03-01T00:11:47;91.70;;;14.27;;
29026;SDS011;16120;48.608;9.092;2023-03-01T00:15:42;91.37;;;15.00;;
29026;SDS011;16120;48.608;9.092;2023-03-01T00:19:39;93.47;;;15.97;;
29026;SDS011;16120;48.608;9.092;2023-03-01T00:23:34;91.43;;;13.80;;
29026;SDS011;16120;48.608;9.092;2023-03-01T00:27:30;90.93;;;14.90;;
29026;SDS011;16120;48.608;9.092;2023-03-01T00:31:26;90.17;;;14.80;;
29026;SDS011;16120;48.608;9.092;2023-03-01T00:35:23;89.00;;;14.17;;
29026;SDS011;16120;48.608;9.092;2023-03-01T00:39:18;88.30;;;13.90;;
29026;SDS011;16120;48.608;9.092;2023-03-01T00:43:13;89.67;;;14.50;;
29026;SDS011;16120;48.608;9.092;2023-03-01T00:47:08;88.50;;;13.83;;
29026;SDS011;16120;48.608;9.092;2023-03-01T00:51:06;91.90;;;15.97;;
29026;SDS011;16120;48.608;9.092;2023-03-01T00:55:01;89.50;;;14.83;;
29026;SDS011;16120;48.608;9.092;2023-03-01T00:58:57;91.73;;;14.23;;
29026;SDS011;16120;48.608;9.092;2023-03-01T01:02:52;88.70;;;12.60;;
29026;SDS011;16120;48.608;9.092;2023-03-01T01:06:48;89.67;;;14.20;;
29026;SDS011;16120;48.608;9.092;2023-03-01T01:10:44;90.67;;;15.33;;
29026;SDS011;16120;48.608;9.092;2023-03-01T01:14:39;91.27;;;14.40;;
29026;SDS011;16120;48.608;9.092;2023-03-01T01:18:34;92.60;;;14.73;;
29026;SDS011;16120;48.608;9.092;2023-03-01T01:22:31;88.17;;;12.90;;
29026;SDS011;16120;48.608;9.092;2023-03-01T01:26:26;87.30;;;13.43;;
29026;SDS011;16120;48.608;9.092;2023-03-01T01:30:22;93.37;;;14.03;;
29026;SDS011;16120;48.608;9.092;2023-03-01T01:34:18;88.00;;;13.50;;
29026;SDS011;16120;48.608;9.092;2023-03-01T01:38:15;94.00;;;14.73;;
29026;SDS011;16120;48.608;9.092;2023-03-01T01:42:11;93.73;;;14.33;;
29026;SDS011;16120;48.608;9.092;2023-03-01T01:46:10;89.77;;;14.07;;
29026;SDS011;16120;48.608;9.092;2023-03-01T01:50:09;90.13;;;14.07;;
29026;SDS011;16120;48.608;9.092;2023-03-01T01:54:11;88.27;;;13.93;;
29026;SDS011;16120;48.608;9.092;2023-03-01T01:58:08;90.80;;;14.33;;
29026;SDS011;16120;48.608;9.092;2023-03-01T02:02:04;88.33;;;14.30;;
29026;SDS011;16120;48.608;9.092;2023-03-01T02:06:00;87.67;;;13.67;;
29026;SDS011;16120;48.608;9.092;2023-03-01T02:09:59;87.60;;;14.10;;
29026;SDS011;16120;48.608;9.092;2023-03-01T02:13:55;95.70;;;15.03;;
29026;SDS011;16120;48.608;9.092;2023-03-01T02:17:50;93.27;;;15.60;;
29026;SDS011;16120;48.608;9.092;2023-03-01T02:21:46;90.38;;;14.40;;
29026;SDS011;16120;48.608;9.092;2023-03-01T02:25:49;90.00;;;15.13;;
29026;SDS011;16120;48.608;9.092;2023-03-01T02:29:47;91.87;;;15.90;;
29026;SDS011;16120;48.608;9.092;2023-03-01T02:33:42;89.57;;;14.90;;
29026;SDS011;16120;48.608;9.092;2023-03-01T02:37:38;92.30;;;16.00;;
29026;SDS011;16120;48.608;9.092;2023-03-01T02:41:35;92.13;;;15.07;;
29026;SDS011;16120;48.608;9.092;2023-03-01T02:45:32;91.70;;;14.20;;
29026;SDS011;16120;48.608;9.092;2023-03-01T02:49:28;91.40;;;16.80;;
29026;SDS011;16120;48.608;9.092;2023-03-01T02:53:25;91.70;;;15.57;;
29026;SDS011;16120;48.608;9.092;2023-03-01T02:57:22;94.40;;;15.30;;
29026;SDS011;16120;48.608;9.092;2023-03-01T03:01:20;94.60;;;16.63;;
29026;SDS011;16120;48.608;9.092;2023-03-01T03:05:16;92.47;;;16.40;;
29026;SDS011;16120;48.608;9.092;2023-03-01T03:09:11;96.27;;;17.13;;
29026;SDS011;16120;48.608;9.092;2023-03-01T03:13:07;91.87;;;16.23;;
29026;SDS011;16120;48.608;9.092;2023-03-01T03:17:04;93.27;;;17.67;;
29026;SDS011;16120;48.608;9.092;2023-03-01T03:20:59;96.90;;;18.73;;
29026;SDS011;16120;48.608;9.092;2023-03-01T03:24:54;93.27;;;17.10;;
29026;SDS011;16120;48.608;9.092;2023-03-01T03:28:50;93.60;;;17.03;;
29026;SDS011;16120;48.608;9.092;2023-03-01T03:32:46;92.83;;;17.30;;
29026;SDS011;16120;48.608;9.092;2023-03-01T03:36:42;103.23;;;17.43;;
29026;SDS011;16120;48.608;9.092;2023-03-01T03:40:37;94.50;;;17.13;;
29026;SDS011;16120;48.608;9.092;2023-03-01T03:44:33;92.30;;;17.00;;
29026;SDS011;16120;48.608;9.092;2023-03-01T03:48:29;97.83;;;18.37;;
29026;SDS011;16120;48.608;9.092;2023-03-01T03:52:25;95.47;;;17.30;;
29026;SDS011;16120;48.608;9.092;2023-03-01T03:56:20;92.67;;;17.20;;
29026;SDS011;16120;48.608;9.092;2023-03-01T04:00:15;96.97;;;18.13;;
29026;SDS011;16120;48.608;9.092;2023-03-01T04:04:12;96.20;;;17.90;;
29026;SDS011;16120;48.608;9.092;2023-03-01T04:08:07;93.70;;;17.80;;
29026;SDS011;16120;48.608;9.092;2023-03-01T04:12:03;91.80;;;16.30;;
29026;SDS011;16120;48.608;9.092;2023-03-01T04:15:58;93.70;;;17.80;;
29026;SDS011;16120;48.608;9.092;2023-03-01T04:19:54;95.03;;;17.70;;
29026;SDS011;16120;48.608;9.092;2023-03-01T04:23:49;94.10;;;16.87;;
29026;SDS011;16120;48.608;9.092;2023-03-01T04:27:45;94.87;;;17.30;;
29026;SDS011;16120;48.608;9.092;2023-03-01T04:31:40;93.50;;;16.85;;
29026;SDS011;16120;48.608;9.092;2023-03-01T04:35:37;93.47;;;17.90;;
29026;SDS011;16120;48.608;9.092;2023-03-01T04:39:33;95.60;;;17.50;;
29026;SDS011;16120;48.608;9.092;2023-03-01T04:43:28;98.27;;;18.90;;
29026;SDS011;16120;48.608;9.092;2023-03-01T04:47:24;96.20;;;18.73;;
29026;SDS011;16120;48.608;9.092;2023-03-01T04:51:20;94.63;;;19.13;;
29026;SDS011;16120;48.608;9.092;2023-03-01T04:55:16;96.03;;;17.30;;
29026;SDS011;16120;48.608;9.092;2023-03-01T04:59:11;94.90;;;18.10;;
29026;SDS011;16120;48.608;9.092;2023-03-01T05:03:07;97.10;;;18.10;;
29026;SDS011;16120;48.608;9.092;2023-03-01T05:07:04;98.37;;;18.53;;
29026;SDS011;16120;48.608;9.092;2023-03-01T05:10:59;96.33;;;18.90;;
29026;SDS011;16120;48.608;9.092;2023-03-01T05:14:54;97.33;;;18.43;;
29026;SDS011;16120;48.608;9.092;2023-03-01T05:18:50;99.67;;;19.23;;
29026;SDS011;16120;48.608;9.092;2023-03-01T05:22:46;97.67;;;17.77;;
29026;SDS011;16120;48.608;9.092;2023-03-01T05:26:41;97.57;;;18.33;;
29026;SDS011;16120;48.608;9.092;2023-03-01T05:30:37;98.07;;;17.00;;
29026;SDS011;16120;48.608;9.092;2023-03-01T05:34:33;102.60;;;20.17;;
29026;SDS011;16120;48.608;9.092;2023-03-01T05:38:29;96.80;;;19.40;;
29026;SDS011;16120;48.608;9.092;2023-03-01T05:42:25;103.27;;;20.77;;
29026;SDS011;16120;48.608;9.092;2023-03-01T05:46:20;103.23;;;22.20;;
29026;SDS011;16120;48.608;9.092;2023-03-01T05:50:16;105.87;;;20.47;;
29026;SDS011;16120;48.608;9.092;2023-03-01T05:54:12;101.57;;;20.20;;
29026;SDS011;16120;48.608;9.092;2023-03-01T05:58:09;100.17;;;21.10;;
29026;SDS011;16120;48.608;9.092;2023-03-01T06:02:05;104.20;;;22.80;;
29026;SDS011;16120;48.608;9.092;2023-03-01T06:06:00;100.97;;;20.53;;
29026;SDS011;16120;48.608;9.092;2023-03-01T06:09:56;99.17;;;19.63;;
29026;SDS011;16120;48.608;9.092;2023-03-01T06:13:52;96.70;;;19.67;;
29026;SDS011;16120;48.608;9.092;2023-03-01T06:17:47;99.87;;;20.17;;
29026;SDS011;16120;48.608;9.092;2023-03-01T06:21:42;98.53;;;21.07;;
29026;SDS011;16120;48.608;9.092;2023-03-01T06:25:39;96.40;;;19.00;;
29026;SDS011;16120;48.608;9.092;2023-03-01T06:29:34;100.80;;;20.40;;
29026;SDS011;16120;48.608;9.092;2023-03-01T06:33:29;98.37;;;20.87;;
29026;SDS011;16120;48.608;9.092;2023-03-01T06:37:24;102.47;;;21.33;;
29026;SDS011;16120;48.608;9.092;2023-03-01T06:41:21;95.97;;;19.33;;
29026;SDS011;16120;48.608;9.092;2023-03-01T06:45:17;99.97;;;19.70;;
29026;SDS011;16120;48.608;9.092;2023-03-01T06:49:12;98.60;;;20.10;;
29026;SDS011;16120;48.608;9.092;2023-03-01T06:53:08;103.03;;;19.70;;
29026;SDS011;16120;48.608;9.092;2023-03-01T06:57:04;101.97;;;21.43;;
29026;SDS011;16120;48.608;9.092;2023-03-01T07:01:00;100.83;;;20.40;;
29026;SDS011;16120;48.608;9.092;2023-03-01T07:04:55;104.45;;;21.00;;
29026;SDS011;16120;48.608;9.092;2023-03-01T07:08:50;105.88;;;21.27;;
29026;SDS011;16120;48.608;9.092;2023-03-01T07:12:46;109.03;;;21.80;;
29026;SDS011;16120;48.608;9.092;2023-03-01T07:16:42;101.20;;;20.30;;
29026;SDS011;16120;48.608;9.092;2023-03-01T07:20:37;102.57;;;21.97;;
29026;SDS011;16120;48.608;9.092;2023-03-01T07:24:32;100.77;;;21.67;;
29026;SDS011;16120;48.608;9.092;2023-03-01T07:28:29;98.57;;;18.73;;
29026;SDS011;16120;48.608;9.092;2023-03-01T07:32:24;102.37;;;20.77;;
29026;SDS011;16120;48.608;9.092;2023-03-01T07:36:19;108.75;;;22.65;;
29026;SDS011;16120;48.608;9.092;2023-03-01T07:40:15;104.63;;;20.93;;
29026;SDS011;16120;48.608;9.092;2023-03-01T07:44:11;101.27;;;21.87;;
29026;SDS011;16120;48.608;9.092;2023-03-01T07:48:06;106.20;;;22.37;;
29026;SDS011;16120;48.608;9.092;2023-03-01T07:52:02;103.90;;;21.90;;
29026;SDS011;16120;48.608;9.092;2023-03-01T07:56:01;102.90;;;22.80;;
29026;SDS011;16120;48.608;9.092;2023-03-01T07:59:57;105.80;;;24.07;;
29026;SDS011;16120;48.608;9.092;2023-03-01T08:03:53;105.27;;;23.23;;
29026;SDS011;16120;48.608;9.092;2023-03-01T08:07:48;101.20;;;21.37;;
29026;SDS011;16120;48.608;9.092;2023-03-01T08:11:43;107.07;;;22.43;;
29026;SDS011;16120;48.608;9.092;2023-03-01T08:15:40;104.90;;;24.73;;
29026;SDS011;16120;48.608;9.092;2023-03-01T08:19:35;104.27;;;22.53;;
29026;SDS011;16120;48.608;9.092;2023-03-01T08:23:30;102.25;;;22.25;;
29026;SDS011;16120;48.608;9.092;2023-03-01T08:27:25;105.67;;;22.83;;
29026;SDS011;16120;48.608;9.092;2023-03-01T08:31:23;103.03;;;24.33;;
29026;SDS011;16120;48.608;9.092;2023-03-01T08:35:19;101.87;;;21.77;;
29026;SDS011;16120;48.608;9.092;2023-03-01T08:39:15;116.67;;;43.63;;
29026;SDS011;16120;48.608;9.092;2023-03-01T08:43:10;104.40;;;21.07;;
29026;SDS011;16120;48.608;9.092;2023-03-01T08:47:07;115.20;;;25.03;;
29026;SDS011;16120;48.608;9.092;2023-03-01T08:51:08;102.23;;;22.20;;
29026;SDS011;16120;48.608;9.092;2023-03-01T08:55:04;107.83;;;21.47;;
29026;SDS011;16120;48.608;9.092;2023-03-01T08:59:00;103.20;;;22.17;;
29026;SDS011;16120;48.608;9.092;2023-03-01T09:02:56;108.80;;;25.43;;
29026;SDS011;16120;48.608;9.092;2023-03-01T09:06:51;105.00;;;25.00;;
29026;SDS011;16120;48.608;9.092;2023-03-01T09:10:47;108.55;;;23.67;;
29026;SDS011;16120;48.608;9.092;2023-03-01T09:14:42;97.10;;;20.80;;
29026;SDS011;16120;48.608;9.092;2023-03-01T09:18:38;103.77;;;23.23;;
29026;SDS011;16120;48.608;9.092;2023-03-01T09:22:34;106.70;;;21.60;;
29026;SDS011;16120;48.608;9.092;2023-03-01T09:26:29;99.97;;;21.03;;
29026;SDS011;16120;48.608;9.092;2023-03-01T09:30:24;107.47;;;23.83;;
29026;SDS011;16120;48.608;9.092;2023-03-01T09:34:21;101.07;;;19.77;;
29026;SDS011;16120;48.608;9.092;2023-03-01T09:38:16;105.43;;;30.83;;
29026;SDS011;16120;48.608;9.092;2023-03-01T09:42:11;99.80;;;19.77;;
29026;SDS011;16120;48.608;9.092;2023-03-01T09:46:07;103.33;;;21.90;;
29026;SDS011;16120;48.608;9.092;2023-03-01T09:50:06;101.60;;;19.43;;
29026;SDS011;16120;48.608;9.092;2023-03-01T09:54:05;101.70;;;20.50;;
29026;SDS011;16120;48.608;9.092;2023-03-01T09:58:04;101.57;;;23.90;;
29026;SDS011;16120;48.608;9.092;2023-03-01T10:02:02;104.27;;;22.80;;
29026;SDS011;16120;48.608;9.092;2023-03-01T10:06:06;103.27;;;28.40;;
29026;SDS011;16120;48.608;9.092;2023-03-01T10:10:05;125.90;;;47.80;;
29026;SDS011;16120;48.608;9.092;2023-03-01T10:14:01;103.73;;;23.37;;
29026;SDS011;16120;48.608;9.092;2023-03-01T10:17:58;105.07;;;20.70;;
29026;SDS011;16120;48.608;9.092;2023-03-01T10:21:57;103.37;;;21.80;;
29026;SDS011;16120;48.608;9.092;2023-03-01T10:25:56;107.27;;;24.80;;
29026;SDS011;16120;48.608;9.092;2023-03-01T10:30:00;98.70;;;20.87;;
29026;SDS011;16120;48.608;9.092;2023-03-01T10:33:59;104.10;;;21.60;;
29026;SDS011;16120;48.608;9.092;2023-03-01T10:38:01;101.63;;;21.85;;
29026;SDS011;16120;48.608;9.092;2023-03-01T10:41:58;100.47;;;20.40;;
29026;SDS011;16120;48.608;9.092;2023-03-01T10:45:53;104.87;;;22.77;;
29026;SDS011;16120;48.608;9.092;2023-03-01T10:49:58;103.13;;;26.20;;
29026;SDS011;16120;48.608;9.092;2023-03-01T10:53:54;103.13;;;21.97;;
29026;SDS011;16120;48.608;9.092;2023-03-01T10:57:49;103.80;;;20.90;;
29026;SDS011;16120;48.608;9.092;2023-03-01T11:01:45;104.60;;;25.83;;
29026;SDS011;16120;48.608;9.092;2023-03-01T11:05:50;105.07;;;21.07;;
29026;SDS011;16120;48.608;9.092;2023-03-01T11:09:47;102.27;;;21.63;;
29026;SDS011;16120;48.608;9.092;2023-03-01T11:13:47;102.03;;;23.17;;
29026;SDS011;16120;48.608;9.092;2023-03-01T11:17:44;100.20;;;20.73;;
29026;SDS011;16120;48.608;9.092;2023-03-01T11:21:40;103.15;;;22.67;;
29026;SDS011;16120;48.608;9.092;2023-03-01T11:25:38;101.97;;;22.50;;
29026;SDS011;16120;48.608;9.092;2023-03-01T11:29:35;100.07;;;20.40;;
29026;SDS011;16120;48.608;9.092;2023-03-01T11:33:33;100.57;;;19.67;;
29026;SDS011;16120;48.608;9.092;2023-03-01T11:37:32;97.60;;;19.37;;
29026;SDS011;16120;48.608;9.092;2023-03-01T11:41:31;105.13;;;20.13;;
29026;SDS011;16120;48.608;9.092;2023-03-01T11:45:27;98.70;;;19.70;;
29026;SDS011;16120;48.608;9.092;2023-03-01T11:49:32;98.30;;;20.03;;
29026;SDS011;16120;48.608;9.092;2023-03-01T11:53:35;114.33;;;22.50;;
29026;SDS011;16120;48.608;9.092;2023-03-01T11:57:38;102.80;;;24.47;;
29026;SDS011;16120;48.608;9.092;2023-03-01T12:01:42;101.27;;;21.63;;
29026;SDS011;16120;48.608;9.092;2023-03-01T12:05:45;104.90;;;20.70;;
29026;SDS011;16120;48.608;9.092;2023-03-01T12:09:48;130.30;;;62.53;;
29026;SDS011;16120;48.608;9.092;2023-03-01T12:14:00;104.93;;;26.37;;
29026;SDS011;16120;48.608;9.092;2023-03-01T12:22:17;101.27;;;19.83;;
29026;SDS011;16120;48.608;9.092;2023-03-01T12:26:17;97.30;;;18.00;;
29026;SDS011;16120;48.608;9.092;2023-03-01T12:30:23;99.00;;;19.50;;
29026;SDS011;16120;48.608;9.092;2023-03-01T12:34:26;101.57;;;19.70;;
29026;SDS011;16120;48.608;9.092;2023-03-01T12:38:32;98.80;;;19.57;;
29026;SDS011;16120;48.608;9.092;2023-03-01T12:42:28;98.43;;;21.60;;
29026;SDS011;16120;48.608;9.092;2023-03-01T12:46:31;102.77;;;23.87;;
29026;SDS011;16120;48.608;9.092;2023-03-01T12:50:34;98.90;;;20.50;;
29026;SDS011;16120;48.608;9.092;2023-03-01T12:54:33;98.87;;;19.00;;
29026;SDS011;16120;48.608;9.092;2023-03-01T12:58:31;101.20;;;19.97;;
29026;SDS011;16120;48.608;9.092;2023-03-01T13:02:30;98.10;;;19.80;;
29026;SDS011;16120;48.608;9.092;2023-03-01T13:06:29;105.27;;;21.30;;
29026;SDS011;16120;48.608;9.092;2023-03-01T13:10:29;99.30;;;19.57;;
29026;SDS011;16120;48.608;9.092;2023-03-01T13:14:42;102.13;;;25.83;;
29026;SDS011;16120;48.608;9.092;2023-03-01T13:18:48;98.17;;;18.97;;
29026;SDS011;16120;48.608;9.092;2023-03-01T13:22:43;99.10;;;18.20;;
29026;SDS011;16120;48.608;9.092;2023-03-01T13:27:09;98.70;;;19.33;;
29026;SDS011;16120;48.608;9.092;2023-03-01T13:31:05;99.10;;;19.97;;
29026;SDS011;16120;48.608;9.092;2023-03-01T13:35:03;109.33;;;36.03;;
29026;SDS011;16120;48.608;9.092;2023-03-01T13:38:59;97.57;;;21.20;;
29026;SDS011;16120;48.608;9.092;2023-03-01T13:42:55;97.83;;;20.10;;
29026;SDS011;16120;48.608;9.092;2023-03-01T13:46:51;99.67;;;22.30;;
29026;SDS011;16120;48.608;9.092;2023-03-01T13:50:49;105.40;;;19.10;;
29026;SDS011;16120;48.608;9.092;2023-03-01T13:54:45;99.77;;;21.23;;
29026;SDS011;16120;48.608;9.092;2023-03-01T13:58:45;98.00;;;18.77;;
29026;SDS011;16120;48.608;9.092;2023-03-01T14:02:42;100.57;;;25.00;;
29026;SDS011;16120;48.608;9.092;2023-03-01T14:06:38;99.00;;;20.97;;
29026;SDS011;16120;48.608;9.092;2023-03-01T14:10:35;99.30;;;19.60;;
29026;SDS011;16120;48.608;9.092;2023-03-01T14:14:39;102.03;;;26.10;;
29026;SDS011;16120;48.608;9.092;2023-03-01T14:18:38;100.77;;;18.63;;
29026;SDS011;16120;48.608;9.092;2023-03-01T14:22:39;99.63;;;25.00;;
29026;SDS011;16120;48.608;9.092;2023-03-01T14:26:35;98.20;;;18.70;;
29026;SDS011;16120;48.608;9.092;2023-03-01T14:30:32;97.20;;;18.00;;
29026;SDS011;16120;48.608;9.092;2023-03-01T14:34:28;99.37;;;17.27;;
29026;SDS011;16120;48.608;9.092;2023-03-01T14:38:29;100.37;;;24.60;;
29026;SDS011;16120;48.608;9.092;2023-03-01T14:42:26;101.60;;;23.53;;
29026;SDS011;16120;48.608;9.092;2023-03-01T14:46:24;97.43;;;19.50;;
29026;SDS011;16120;48.608;9.092;2023-03-01T14:50:22;98.30;;;18.80;;
29026;SDS011;16120;48.608;9.092;2023-03-01T14:54:21;96.67;;;18.30;;
29026;SDS011;16120;48.608;9.092;2023-03-01T14:58:19;99.37;;;22.30;;
29026;SDS011;16120;48.608;9.092;2023-03-01T15:02:15;98.50;;;19.73;;
29026;SDS011;16120;48.608;9.092;2023-03-01T15:06:10;101.50;;;21.80;;
29026;SDS011;16120;48.608;9.092;2023-03-01T15:10:14;98.77;;;19.13;;
29026;SDS011;16120;48.608;9.092;2023-03-01T15:18:26;101.77;;;22.00;;
29026;SDS011;16120;48.608;9.092;2023-03-01T15:22:22;100.33;;;19.53;;
29026;SDS011;16120;48.608;9.092;2023-03-01T15:26:22;100.00;;;18.60;;
29026;SDS011;16120;48.608;9.092;2023-03-01T15:30:19;110.50;;;23.60;;
29026;SDS011;16120;48.608;9.092;2023-03-01T15:34:21;102.27;;;20.83;;
29026;SDS011;16120;48.608;9.092;2023-03-01T15:38:27;121.43;;;48.03;;
29026;SDS011;16120;48.608;9.092;2023-03-01T15:42:36;115.97;;;36.80;;
29026;SDS011;16120;48.608;9.092;2023-03-01T15:46:33;100.27;;;19.77;;
29026;SDS011;16120;48.608;9.092;2023-03-01T15:50:29;96.27;;;18.97;;
29026;SDS011;16120;48.608;9.092;2023-03-01T15:54:25;98.07;;;19.20;;
29026;SDS011;16120;48.608;9.092;2023-03-01T15:58:23;96.23;;;20.63;;
29026;SDS011;16120;48.608;9.092;2023-03-01T16:02:18;99.03;;;23.17;;
29026;SDS011;16120;48.608;9.092;2023-03-01T16:06:14;98.13;;;17.73;;
29026;SDS011;16120;48.608;9.092;2023-03-01T16:10:09;93.57;;;17.38;;
29026;SDS011;16120;48.608;9.092;2023-03-01T16:14:06;93.07;;;17.73;;
29026;SDS011;16120;48.608;9.092;2023-03-01T16:18:01;96.73;;;18.57;;
29026;SDS011;16120;48.608;9.092;2023-03-01T16:21:57;93.50;;;18.03;;
29026;SDS011;16120;48.608;9.092;2023-03-01T16:25:52;94.27;;;18.30;;
29026;SDS011;16120;48.608;9.092;2023-03-01T16:29:48;96.70;;;17.77;;
29026;SDS011;16120;48.608;9.092;2023-03-01T16:33:44;93.70;;;17.03;;
29026;SDS011;16120;48.608;9.092;2023-03-01T16:37:39;96.57;;;17.40;;
29026;SDS011;16120;48.608;9.092;2023-03-01T16:41:34;96.43;;;18.53;;
29026;SDS011;16120;48.608;9.092;2023-03-01T16:45:33;95.70;;;16.77;;
29026;SDS011;16120;48.608;9.092;2023-03-01T16:49:28;95.70;;;17.03;;
29026;SDS011;16120;48.608;9.092;2023-03-01T16:53:23;94.53;;;18.40;;
29026;SDS011;16120;48.608;9.092;2023-03-01T16:57:19;99.32;;;19.40;;
29026;SDS011;16120;48.608;9.092;2023-03-01T17:01:16;95.70;;;18.67;;
29026;SDS011;16120;48.608;9.092;2023-03-01T17:05:12;97.17;;;19.43;;
29026;SDS011;16120;48.608;9.092;2023-03-01T17:09:07;102.93;;;22.93;;
29026;SDS011;16120;48.608;9.092;2023-03-01T17:13:02;101.50;;;19.27;;
29026;SDS011;16120;48.608;9.092;2023-03-01T17:16:59;98.40;;;18.77;;
29026;SDS011;16120;48.608;9.092;2023-03-01T17:20:55;96.90;;;19.20;;
29026;SDS011;16120;48.608;9.092;2023-03-01T17:24:50;100.33;;;18.70;;
29026;SDS011;16120;48.608;9.092;2023-03-01T17:28:45;98.33;;;19.43;;
29026;SDS011;16120;48.608;9.092;2023-03-01T17:32:42;97.45;;;19.38;;
29026;SDS011;16120;48.608;9.092;2023-03-01T17:36:37;97.00;;;18.13;;
29026;SDS011;16120;48.608;9.092;2023-03-01T17:40:32;103.57;;;20.43;;
29026;SDS011;16120;48.608;9.092;2023-03-01T17:44:28;101.67;;;20.43;;
29026;SDS011;16120;48.608;9.092;2023-03-01T17:48:24;97.77;;;20.63;;
29026;SDS011;16120;48.608;9.092;2023-03-01T17:52:19;103.40;;;21.70;;
29026;SDS011;16120;48.608;9.092;2023-03-01T17:56:15;100.53;;;19.03;;
29026;SDS011;16120;48.608;9.092;2023-03-01T18:00:11;101.00;;;19.40;;
29026;SDS011;16120;48.608;9.092;2023-03-01T18:04:08;107.80;;;19.90;;
29026;SDS011;16120;48.608;9.092;2023-03-01T18:08:03;97.30;;;17.57;;
29026;SDS011;16120;48.608;9.092;2023-03-01T18:11:58;102.60;;;17.60;;
29026;SDS011;16120;48.608;9.092;2023-03-01T18:15:54;96.37;;;17.30;;
29026;SDS011;16120;48.608;9.092;2023-03-01T18:19:50;94.80;;;17.17;;
29026;SDS011;16120;48.608;9.092;2023-03-01T18:23:46;97.47;;;18.30;;
29026;SDS011;16120;48.608;9.092;2023-03-01T18:27:41;99.53;;;18.50;;
29026;SDS011;16120;48.608;9.092;2023-03-01T18:31:36;98.60;;;18.40;;
29026;SDS011;16120;48.608;9.092;2023-03-01T18:35:36;99.43;;;17.47;;
29026;SDS011;16120;48.608;9.092;2023-03-01T18:39:31;99.20;;;17.97;;
29026;SDS011;16120;48.608;9.092;2023-03-01T18:43:26;95.97;;;17.47;;
29026;SDS011;16120;48.608;9.092;2023-03-01T18:47:21;98.47;;;17.23;;
29026;SDS011;16120;48.608;9.092;2023-03-01T18:51:18;96.82;;;17.33;;
29026;SDS011;16120;48.608;9.092;2023-03-01T18:55:14;95.43;;;17.57;;
29026;SDS011;16120;48.608;9.092;2023-03-01T18:59:09;99.20;;;17.67;;
29026;SDS011;16120;48.608;9.092;2023-03-01T19:03:04;94.20;;;16.20;;
29026;SDS011;16120;48.608;9.092;2023-03-01T19:07:00;101.90;;;15.13;;
29026;SDS011;16120;48.608;9.092;2023-03-01T19:10:56;96.97;;;15.13;;
29026;SDS011;16120;48.608;9.092;2023-03-01T19:14:51;93.67;;;15.50;;
29026;SDS011;16120;48.608;9.092;2023-03-01T19:18:46;94.07;;;15.32;;
29026;SDS011;16120;48.608;9.092;2023-03-01T19:22:43;96.20;;;15.53;;
29026;SDS011;16120;48.608;9.092;2023-03-01T19:26:38;95.10;;;15.60;;
29026;SDS011;16120;48.608;9.092;2023-03-01T19:30:34;95.70;;;16.23;;
29026;SDS011;16120;48.608;9.092;2023-03-01T19:34:29;91.47;;;14.20;;
29026;SDS011;16120;48.608;9.092;2023-03-01T19:38:26;93.93;;;15.18;;
29026;SDS011;16120;48.608;9.092;2023-03-01T19:42:21;94.70;;;15.30;;
29026;SDS011;16120;48.608;9.092;2023-03-01T19:46:16;94.70;;;15.70;;
29026;SDS011;16120;48.608;9.092;2023-03-01T19:50:11;95.90;;;15.83;;
29026;SDS011;16120;48.608;9.092;2023-03-01T19:54:08;94.93;;;15.73;;
29026;SDS011;16120;48.608;9.092;2023-03-01T19:58:03;95.90;;;14.40;;
29026;SDS011;16120;48.608;9.092;2023-03-01T20:01:58;94.27;;;15.67;;
29026;SDS011;16120;48.608;9.092;2023-03-01T20:05:56;95.43;;;15.90;;
29026;SDS011;16120;48.608;9.092;2023-03-01T20:09:53;98.10;;;16.77;;
29026;SDS011;16120;48.608;9.092;2023-03-01T20:13:48;93.87;;;15.70;;
29026;SDS011;16120;48.608;9.092;2023-03-01T20:17:44;96.97;;;16.57;;
29026;SDS011;16120;48.608;9.092;2023-03-01T20:21:39;95.60;;;16.20;;
29026;SDS011;16120;48.608;9.092;2023-03-01T20:25:36;95.20;;;15.90;;
29026;SDS011;16120;48.608;9.092;2023-03-01T20:29:32;99.10;;;17.07;;
29026;SDS011;16120;48.608;9.092;2023-03-01T20:33:27;95.60;;;14.82;;
29026;SDS011;16120;48.608;9.092;2023-03-01T20:37:22;97.07;;;15.40;;
29026;SDS011;16120;48.608;9.092;2023-03-01T20:41:19;92.90;;;15.45;;
29026;SDS011;16120;48.608;9.092;2023-03-01T20:45:14;96.83;;;15.77;;
29026;SDS011;16120;48.608;9.092;2023-03-01T20:49:09;91.50;;;15.57;;
29026;SDS011;16120;48.608;9.092;2023-03-01T20:53:05;98.27;;;15.00;;
29026;SDS011;16120;48.608;9.092;2023-03-01T20:57:01;96.87;;;16.43;;
29026;SDS011;16120;48.608;9.092;2023-03-01T21:00:57;93.13;;;15.93;;
29026;SDS011;16120;48.608;9.092;2023-03-01T21:04:52;92.80;;;15.70;;
29026;SDS011;16120;48.608;9.092;2023-03-01T21:08:47;95.40;;;15.43;;
29026;SDS011;16120;48.608;9.092;2023-03-01T21:12:44;93.67;;;15.90;;
29026;SDS011;16120;48.608;9.092;2023-03-01T21:16:39;99.40;;;16.40;;
29026;SDS011;16120;48.608;9.092;2023-03-01T21:20:35;97.10;;;16.70;;
29026;SDS011;16120;48.608;9.092;2023-03-01T21:24:30;95.80;;;16.90;;
29026;SDS011;16120;48.608;9.092;2023-03-01T21:28:27;94.87;;;16.47;;
29026;SDS011;16120;48.608;9.092;2023-03-01T21:32:22;97.03;;;17.57;;
29026;SDS011;16120;48.608;9.092;2023-03-01T21:36:17;94.87;;;16.17;;
29026;SDS011;16120;48.608;9.092;2023-03-01T21:40:13;97.93;;;17.83;;
29026;SDS011;16120;48.608;9.092;2023-03-01T21:44:10;95.23;;;16.40;;
29026;SDS011;16120;48.608;9.092;2023-03-01T21:48:08;93.27;;;16.53;;
29026;SDS011;16120;48.608;9.092;2023-03-01T21:52:03;98.30;;;17.77;;
29026;SDS011;16120;48.608;9.092;2023-03-01T21:55:59;98.27;;;17.50;;
29026;SDS011;16120;48.608;9.092;2023-03-01T21:59:56;94.30;;;16.80;;
29026;SDS011;16120;48.608;9.092;2023-03-01T22:03:51;95.20;;;16.97;;
29026;SDS011;16120;48.608;9.092;2023-03-01T22:07:47;97.30;;;17.67;;
29026;SDS011;16120;48.608;9.092;2023-03-01T22:11:43;95.80;;;17.90;;
29026;SDS011;16120;48.608;9.092;2023-03-01T22:15:40;96.83;;;18.30;;
29026;SDS011;16120;48.608;9.092;2023-03-01T22:19:35;97.60;;;17.77;;
29026;SDS011;16120;48.608;9.092;2023-03-01T22:23:30;94.50;;;17.90;;
29026;SDS011;16120;48.608;9.092;2023-03-01T22:27:25;97.90;;;17.25;;
29026;SDS011;16120;48.608;9.092;2023-03-01T22:31:22;95.33;;;16.30;;
29026;SDS011;16120;48.608;9.092;2023-03-01T22:35:18;100.90;;;18.40;;
29026;SDS011;16120;48.608;9.092;2023-03-01T22:39:13;95.80;;;17.03;;
29026;SDS011;16120;48.608;9.092;2023-03-01T22:43:09;97.10;;;18.23;;
29026;SDS011;16120;48.608;9.092;2023-03-01T22:47:05;96.70;;;16.67;;
29026;SDS011;16120;48.608;9.092;2023-03-01T22:51:00;101.50;;;20.40;;
29026;SDS011;16120;48.608;9.092;2023-03-01T22:54:56;98.80;;;18.73;;
29026;SDS011;16120;48.608;9.092;2023-03-01T22:58:51;96.20;;;17.90;;
29026;SDS011;16120;48.608;9.092;2023-03-01T23:02:48;100.33;;;19.43;;
29026;SDS011;16120;48.608;9.092;2023-03-01T23:06:43;96.80;;;17.90;;